createdAt,value
2023-09-16T00:00:24.008Z,10.03
2023-09-16T00:02:51.157Z,10.20
2023-09-16T00:05:21.039Z,11.17
2023-09-16T00:07:47.934Z,10.80
2023-09-16T00:10:16.490Z,11.80
2023-09-16T00:12:44.705Z,11.27
2023-09-16T00:15:11.893Z,11.83
2023-09-16T00:17:41.237Z,11.57
2023-09-16T00:20:09.385Z,11.57
2023-09-16T00:22:36.283Z,12.07
2023-09-16T00:25:03.505Z,12.10
2023-09-16T00:27:31.800Z,13.23
2023-09-16T00:29:58.895Z,12.00
2023-09-16T00:32:25.811Z,12.57
2023-09-16T00:34:53.548Z,11.27
2023-09-16T00:37:21.375Z,15.23
2023-09-16T00:39:50.105Z,13.37
2023-09-16T00:42:17.351Z,12.83
2023-09-16T00:44:45.607Z,14.63
2023-09-16T00:47:13.163Z,11.77
2023-09-16T00:49:41.409Z,12.30
2023-09-16T00:52:09.282Z,11.80
2023-09-16T00:54:38.909Z,11.40
2023-09-16T00:57:13.330Z,10.80
2023-09-16T00:59:43.652Z,9.70
2023-09-16T01:02:10.721Z,10.13
2023-09-16T01:04:39.882Z,11.30
2023-09-16T01:07:07.272Z,10.00
2023-09-16T01:09:34.711Z,11.40
2023-09-16T01:12:01.655Z,13.07
2023-09-16T01:14:29.869Z,13.60
2023-09-16T01:17:10.290Z,12.13
2023-09-16T01:20:02.429Z,13.00
2023-09-16T01:22:30.232Z,13.27
2023-09-16T01:25:04.093Z,16.33
2023-09-16T01:27:31.230Z,12.73
2023-09-16T01:30:03.582Z,12.33
2023-09-16T01:32:50.417Z,13.13
2023-09-16T01:35:20.969Z,13.40
2023-09-16T01:37:50.318Z,14.33
2023-09-16T01:40:20.018Z,13.80
2023-09-16T01:42:47.903Z,14.07
2023-09-16T01:45:18.705Z,13.97
2023-09-16T01:47:47.531Z,13.93
2023-09-16T01:50:14.809Z,13.87
2023-09-16T01:52:42.129Z,14.50
2023-09-16T01:55:10.320Z,14.50
2023-09-16T01:57:37.636Z,12.70
2023-09-16T02:00:06.046Z,14.70
2023-09-16T02:02:32.938Z,15.00
2023-09-16T02:05:03.733Z,14.60
2023-09-16T02:07:33.384Z,15.07
2023-09-16T02:10:02.208Z,14.37
2023-09-16T02:12:29.279Z,15.27
2023-09-16T02:14:56.206Z,13.00
2023-09-16T02:17:24.754Z,14.77
2023-09-16T02:19:53.087Z,14.40
2023-09-16T02:22:21.032Z,11.10
2023-09-16T02:24:49.477Z,12.00
2023-09-16T02:27:18.403Z,13.10
2023-09-16T02:29:45.558Z,13.03
2023-09-16T02:32:14.605Z,14.83
2023-09-16T02:34:41.628Z,13.30
2023-09-16T02:37:08.995Z,14.87
2023-09-16T02:39:37.242Z,15.60
2023-09-16T02:42:04.848Z,14.83
2023-09-16T02:44:33.303Z,14.77
2023-09-16T02:47:00.346Z,14.80
2023-09-16T02:49:27.600Z,13.73
2023-09-16T02:51:55.044Z,15.83
2023-09-16T02:54:23.560Z,14.63
2023-09-16T02:56:52.219Z,16.23
2023-09-16T02:59:19.188Z,14.70
2023-09-16T03:01:46.198Z,14.40
2023-09-16T03:04:13.320Z,17.10
2023-09-16T03:06:40.666Z,15.83
2023-09-16T03:09:07.776Z,16.43
2023-09-16T03:11:37.857Z,16.23
2023-09-16T03:14:04.920Z,14.67
2023-09-16T03:16:32.893Z,16.03
2023-09-16T03:19:00.262Z,13.60
2023-09-16T03:21:28.885Z,15.03
2023-09-16T03:23:58.748Z,18.30
2023-09-16T03:26:25.735Z,13.33
2023-09-16T03:28:55.401Z,13.00
2023-09-16T03:31:24.768Z,13.93
2023-09-16T03:33:51.800Z,12.90
2023-09-16T03:36:21.391Z,14.90
2023-09-16T03:38:51.503Z,18.10
2023-09-16T03:41:19.174Z,13.27
2023-09-16T03:43:50.116Z,13.70
2023-09-16T03:46:18.242Z,15.27
2023-09-16T03:48:45.434Z,13.87
2023-09-16T03:51:13.863Z,12.87
2023-09-16T03:53:41.861Z,12.80
2023-09-16T03:56:09.026Z,13.90
2023-09-16T03:58:37.837Z,14.30
2023-09-16T04:01:05.476Z,12.80
2023-09-16T04:03:33.678Z,13.77
2023-09-16T04:06:00.951Z,14.03
2023-09-16T04:08:37.930Z,14.07
2023-09-16T04:11:09.876Z,15.17
2023-09-16T04:13:36.824Z,15.53
2023-09-16T04:16:03.994Z,16.03
2023-09-16T04:18:31.729Z,14.10
2023-09-16T04:20:59.641Z,15.50
2023-09-16T04:23:26.866Z,13.07
2023-09-16T04:25:58.365Z,14.37
2023-09-16T04:28:29.319Z,14.87
2023-09-16T04:30:56.506Z,14.17
2023-09-16T04:33:23.992Z,14.33
2023-09-16T04:35:54.563Z,15.20
2023-09-16T04:38:21.535Z,14.53
2023-09-16T04:40:50.481Z,14.63
2023-09-16T04:43:19.324Z,14.07
2023-09-16T04:45:47.870Z,12.90
2023-09-16T04:48:16.092Z,13.53
2023-09-16T04:50:45.880Z,13.87
2023-09-16T04:53:15.314Z,13.50
2023-09-16T04:55:42.476Z,13.37
2023-09-16T04:58:10.353Z,13.27
2023-09-16T05:00:37.981Z,14.00
2023-09-16T05:03:06.122Z,14.17
2023-09-16T05:05:34.973Z,12.90
2023-09-16T05:08:02.061Z,14.10
2023-09-16T05:10:29.040Z,13.97
2023-09-16T05:12:59.081Z,14.10
2023-09-16T05:15:29.601Z,13.80
2023-09-16T05:17:58.782Z,14.40
2023-09-16T05:20:28.112Z,15.40
2023-09-16T05:22:55.175Z,15.80
2023-09-16T05:25:22.273Z,14.90
2023-09-16T05:27:50.672Z,15.97
2023-09-16T05:30:17.705Z,16.73
2023-09-16T05:32:44.650Z,15.33
2023-09-16T05:35:12.012Z,16.30
2023-09-16T05:37:39.160Z,17.47
2023-09-16T05:40:07.396Z,15.93
2023-09-16T05:42:34.417Z,17.60
2023-09-16T05:45:01.575Z,18.33
2023-09-16T05:47:33.273Z,16.80
2023-09-16T05:50:00.484Z,16.90
2023-09-16T05:52:29.607Z,16.93
2023-09-16T05:55:01.156Z,15.33
2023-09-16T05:57:28.204Z,15.63
2023-09-16T05:59:55.311Z,15.10
2023-09-16T06:02:24.299Z,23.00
2023-09-16T06:04:52.079Z,20.17
2023-09-16T06:07:19.053Z,18.07
2023-09-16T06:09:48.050Z,20.67
2023-09-16T06:12:14.985Z,21.73
2023-09-16T06:14:41.892Z,16.90
2023-09-16T06:17:09.549Z,16.87
2023-09-16T06:19:38.666Z,14.83
2023-09-16T06:22:05.661Z,13.93
2023-09-16T06:24:33.155Z,12.83
2023-09-16T06:27:00.236Z,15.13
2023-09-16T06:29:27.160Z,17.00
2023-09-16T06:31:54.141Z,16.87
2023-09-16T06:34:23.443Z,14.70
2023-09-16T06:36:52.404Z,14.20
2023-09-16T06:39:21.127Z,14.97
2023-09-16T06:41:48.091Z,17.20
2023-09-16T06:44:15.107Z,17.23
2023-09-16T06:46:42.347Z,17.43
2023-09-16T06:49:09.657Z,17.23
2023-09-16T06:51:38.186Z,16.23
2023-09-16T06:54:05.687Z,16.90
2023-09-16T06:56:34.334Z,17.07
2023-09-16T06:59:01.704Z,16.67
2023-09-16T07:01:29.190Z,21.83
2023-09-16T07:03:56.321Z,16.67
2023-09-16T07:06:25.034Z,14.80
2023-09-16T07:08:53.341Z,16.00
2023-09-16T07:11:21.860Z,15.40
2023-09-16T07:13:49.028Z,14.50
2023-09-16T07:16:19.445Z,14.67
2023-09-16T07:18:48.199Z,15.17
2023-09-16T07:21:15.539Z,15.27
2023-09-16T07:23:43.487Z,17.47
2023-09-16T07:26:10.620Z,15.67
2023-09-16T07:28:37.723Z,17.83
2023-09-16T07:31:04.673Z,15.93
2023-09-16T07:33:33.989Z,15.80
2023-09-16T07:36:01.241Z,13.37
2023-09-16T07:38:32.330Z,14.70
2023-09-16T07:41:01.469Z,13.63
2023-09-16T07:43:28.404Z,13.90
2023-09-16T07:45:56.080Z,11.57
2023-09-16T07:48:23.405Z,11.70
2023-09-16T07:50:54.956Z,10.67
2023-09-16T07:53:22.738Z,12.43
2023-09-16T07:55:49.652Z,10.97
2023-09-16T07:58:18.691Z,11.73
2023-09-16T08:00:45.925Z,9.87
2023-09-16T08:03:13.062Z,10.30
2023-09-16T08:05:40.341Z,11.00
2023-09-16T08:08:07.777Z,11.80
2023-09-16T08:10:35.887Z,10.00
2023-09-16T08:13:04.787Z,10.93
2023-09-16T08:15:32.091Z,11.10
2023-09-16T08:17:59.309Z,11.13
2023-09-16T08:20:26.428Z,11.00
2023-09-16T08:22:53.379Z,11.80
2023-09-16T08:25:21.024Z,11.97
2023-09-16T08:27:50.279Z,11.13
2023-09-16T08:30:17.222Z,10.77
2023-09-16T08:32:44.222Z,13.63
2023-09-16T08:35:11.317Z,12.90
2023-09-16T08:37:38.252Z,11.90
2023-09-16T08:40:06.079Z,12.07
2023-09-16T08:42:37.145Z,11.10
2023-09-16T08:45:15.097Z,10.30
2023-09-16T08:47:49.892Z,10.10
2023-09-16T08:50:23.120Z,10.87
2023-09-16T08:52:54.662Z,11.50
2023-09-16T08:55:22.963Z,12.40
2023-09-16T08:58:01.025Z,11.23
2023-09-16T09:00:28.551Z,12.43
2023-09-16T09:02:55.641Z,12.60
2023-09-16T09:05:24.010Z,10.87
2023-09-16T09:07:51.693Z,10.67
2023-09-16T09:10:21.231Z,10.83
2023-09-16T09:12:48.314Z,11.63
2023-09-16T09:15:17.008Z,11.03
2023-09-16T09:17:50.119Z,11.97
2023-09-16T09:20:24.062Z,11.57
2023-09-16T09:22:53.627Z,10.70
2023-09-16T09:25:27.424Z,11.47
2023-09-16T09:27:57.377Z,10.67
2023-09-16T09:30:25.940Z,9.63
2023-09-16T09:32:53.020Z,10.60
2023-09-16T09:35:25.249Z,11.20
2023-09-16T09:37:52.868Z,9.67
2023-09-16T09:40:21.552Z,10.40
2023-09-16T09:42:51.509Z,11.23
2023-09-16T09:45:21.692Z,11.73
2023-09-16T09:47:51.813Z,9.77
2023-09-16T09:50:21.271Z,9.63
2023-09-16T09:52:58.201Z,8.40
2023-09-16T09:55:30.848Z,8.73
2023-09-16T09:57:59.163Z,9.37
2023-09-16T10:00:28.094Z,10.40
2023-09-16T10:02:55.215Z,8.70
2023-09-16T10:05:24.416Z,8.70
2023-09-16T10:07:53.610Z,10.63
2023-09-16T10:10:26.043Z,9.53
2023-09-16T10:12:56.861Z,9.73
2023-09-16T10:15:34.809Z,9.07
2023-09-16T10:18:05.059Z,10.10
2023-09-16T10:20:44.529Z,8.30
2023-09-16T10:23:13.229Z,8.30
2023-09-16T10:25:41.700Z,8.17
2023-09-16T10:28:10.343Z,7.70
2023-09-16T10:30:39.039Z,7.03
2023-09-16T10:33:13.647Z,7.60
2023-09-16T10:35:43.380Z,7.27
2023-09-16T10:38:13.154Z,8.30
2023-09-16T10:40:43.442Z,7.27
2023-09-16T10:43:12.155Z,7.40
2023-09-16T10:45:39.335Z,8.23
2023-09-16T10:48:07.750Z,7.33
2023-09-16T10:50:36.052Z,8.10
2023-09-16T10:53:11.223Z,9.00
2023-09-16T10:56:15.337Z,7.10
2023-09-16T10:58:51.048Z,9.20
2023-09-16T11:01:36.497Z,7.23
2023-09-16T11:04:18.719Z,7.00
2023-09-16T11:06:46.582Z,6.07
2023-09-16T11:09:13.719Z,6.57
2023-09-16T11:11:42.557Z,6.20
2023-09-16T11:14:10.967Z,6.20
2023-09-16T11:16:50.763Z,6.23
2023-09-16T11:19:26.483Z,6.63
2023-09-16T11:21:54.353Z,5.90
2023-09-16T11:24:21.863Z,6.60
2023-09-16T11:26:52.604Z,6.53
2023-09-16T11:29:29.743Z,5.30
2023-09-16T11:31:57.523Z,6.83
2023-09-16T11:34:27.519Z,6.17
2023-09-16T11:37:00.304Z,6.67
2023-09-16T11:39:42.722Z,6.50
2023-09-16T11:42:11.163Z,6.37
2023-09-16T11:44:39.253Z,5.47
2023-09-16T11:47:07.369Z,6.87
2023-09-16T11:49:35.435Z,6.00
2023-09-16T11:52:03.915Z,6.07
2023-09-16T11:54:31.097Z,5.90
2023-09-16T11:57:03.194Z,6.33
2023-09-16T11:59:30.426Z,5.93
2023-09-16T12:01:57.775Z,6.30
2023-09-16T12:04:25.705Z,7.13
2023-09-16T12:06:54.041Z,7.80
2023-09-16T12:09:24.299Z,6.93
2023-09-16T12:11:53.405Z,6.53
2023-09-16T12:14:22.762Z,6.47
2023-09-16T12:16:55.965Z,8.03
2023-09-16T12:19:23.622Z,5.43
2023-09-16T12:21:51.690Z,5.57
2023-09-16T12:24:23.672Z,6.20
2023-09-16T12:26:53.843Z,5.10
2023-09-16T12:29:22.677Z,5.00
2023-09-16T12:31:49.720Z,5.63
2023-09-16T12:34:20.974Z,8.87
2023-09-16T12:36:51.105Z,6.87
2023-09-16T12:39:19.024Z,6.30
2023-09-16T12:41:48.644Z,6.40
2023-09-16T12:44:22.041Z,5.73
2023-09-16T12:46:49.418Z,5.03
2023-09-16T12:49:16.755Z,5.50
2023-09-16T12:51:45.632Z,6.50
2023-09-16T12:54:14.667Z,7.33
2023-09-16T12:56:52.309Z,6.63
2023-09-16T12:59:20.261Z,6.17
2023-09-16T13:01:48.024Z,7.00
2023-09-16T13:04:16.483Z,7.30
2023-09-16T13:06:44.974Z,5.80
2023-09-16T13:09:12.064Z,5.30
2023-09-16T13:11:40.651Z,5.70
2023-09-16T13:14:07.683Z,5.80
2023-09-16T13:16:35.494Z,5.93
2023-09-16T13:19:03.662Z,6.10
2023-09-16T13:21:32.900Z,6.70
2023-09-16T13:24:00.507Z,5.23
2023-09-16T13:26:27.807Z,5.83
2023-09-16T13:29:05.164Z,4.97
2023-09-16T13:31:33.461Z,5.37
2023-09-16T13:34:00.879Z,5.37
2023-09-16T13:36:34.714Z,5.73
2023-09-16T13:39:04.875Z,5.80
2023-09-16T13:41:33.807Z,5.17
2023-09-16T13:44:00.817Z,5.30
2023-09-16T13:46:28.185Z,4.50
2023-09-16T13:48:55.953Z,5.30
2023-09-16T13:51:24.112Z,5.03
2023-09-16T13:53:52.237Z,4.97
2023-09-16T13:56:20.209Z,5.30
2023-09-16T13:58:47.529Z,4.73
2023-09-16T14:01:15.080Z,4.60
2023-09-16T14:03:42.546Z,5.13
2023-09-16T14:06:10.054Z,5.00
2023-09-16T14:08:37.002Z,5.67
2023-09-16T14:11:04.673Z,6.93
2023-09-16T14:13:31.710Z,5.03
2023-09-16T14:15:58.741Z,5.30
2023-09-16T14:18:25.751Z,5.37
2023-09-16T14:20:53.480Z,5.63
2023-09-16T14:23:21.218Z,5.00
2023-09-16T14:25:48.427Z,5.00
2023-09-16T14:28:16.540Z,4.77
2023-09-16T14:30:45.181Z,5.40
2023-09-16T14:33:12.309Z,4.37
2023-09-16T14:35:39.392Z,4.23
2023-09-16T14:38:06.414Z,4.17
2023-09-16T14:40:35.130Z,4.20
2023-09-16T14:43:03.730Z,3.73
2023-09-16T14:45:32.262Z,4.57
2023-09-16T14:47:59.317Z,4.97
2023-09-16T14:50:27.636Z,4.00
2023-09-16T14:52:54.848Z,3.90
2023-09-16T14:55:21.820Z,3.67
2023-09-16T14:57:51.991Z,4.03
2023-09-16T15:00:20.292Z,3.80
2023-09-16T15:02:47.268Z,3.60
2023-09-16T15:05:15.559Z,3.77
2023-09-16T15:07:43.139Z,3.67
2023-09-16T15:10:11.194Z,3.73
2023-09-16T15:12:40.695Z,3.67
2023-09-16T15:15:09.798Z,3.50
2023-09-16T15:17:39.580Z,3.80
2023-09-16T15:20:07.303Z,3.57
2023-09-16T15:22:34.906Z,3.87
2023-09-16T15:25:03.685Z,3.97
2023-09-16T15:27:32.046Z,3.90
2023-09-16T15:29:58.917Z,3.63
2023-09-16T15:34:58.089Z,4.33
2023-09-16T15:37:26.387Z,3.67
2023-09-16T15:39:53.541Z,4.00
2023-09-16T15:42:22.121Z,3.90
2023-09-16T15:44:49.298Z,3.77
2023-09-16T15:47:18.290Z,3.20
2023-09-16T15:49:45.481Z,4.27
2023-09-16T15:52:12.579Z,3.67
2023-09-16T15:54:40.422Z,4.33
2023-09-16T15:57:07.476Z,3.60
2023-09-16T15:59:34.921Z,2.80
2023-09-16T16:02:02.124Z,3.47
2023-09-16T16:04:31.455Z,3.70
2023-09-16T16:06:58.500Z,3.10
2023-09-16T16:09:25.390Z,3.53
2023-09-16T16:11:55.464Z,3.60
2023-09-16T16:14:22.754Z,4.10
2023-09-16T16:16:52.589Z,3.80
2023-09-16T16:19:20.509Z,4.00
2023-09-16T16:21:47.475Z,3.50
2023-09-16T16:24:14.373Z,4.70
2023-09-16T16:26:43.435Z,4.03
2023-09-16T16:29:10.481Z,4.43
2023-09-16T16:31:37.652Z,4.00
2023-09-16T16:34:06.298Z,4.40
2023-09-16T16:36:34.652Z,3.60
2023-09-16T16:39:02.509Z,3.40
2023-09-16T16:41:29.397Z,3.83
2023-09-16T16:43:56.746Z,4.90
2023-09-16T16:46:25.350Z,4.63
2023-09-16T16:48:52.827Z,4.00
2023-09-16T16:51:22.029Z,4.97
2023-09-16T16:53:49.623Z,4.03
2023-09-16T16:56:17.052Z,4.37
2023-09-16T16:58:46.305Z,4.00
2023-09-16T17:01:13.940Z,4.13
2023-09-16T17:03:40.964Z,4.23
2023-09-16T17:06:08.062Z,4.00
2023-09-16T17:08:35.693Z,4.70
2023-09-16T17:11:03.420Z,7.27
2023-09-16T17:13:30.441Z,4.37
2023-09-16T17:15:57.566Z,4.43
2023-09-16T17:18:25.214Z,4.03
2023-09-16T17:20:52.332Z,5.13
2023-09-16T17:23:20.345Z,4.87
2023-09-16T17:25:47.377Z,5.00
2023-09-16T17:28:15.193Z,4.90
2023-09-16T17:30:42.189Z,5.83
2023-09-16T17:33:09.244Z,4.80
2023-09-16T17:35:37.315Z,5.47
2023-09-16T17:38:04.746Z,5.43
2023-09-16T17:40:33.578Z,9.13
2023-09-16T17:43:00.682Z,5.53
2023-09-16T17:45:27.757Z,5.67
2023-09-16T17:47:55.114Z,6.60
2023-09-16T17:50:22.403Z,8.63
2023-09-16T17:52:50.117Z,10.30
2023-09-16T17:55:19.633Z,8.43
2023-09-16T17:57:48.758Z,6.47
2023-09-16T18:00:17.108Z,6.30
2023-09-16T18:02:44.466Z,6.63
2023-09-16T18:05:11.882Z,7.27
2023-09-16T18:07:39.122Z,8.30
2023-09-16T18:10:09.171Z,9.37
2023-09-16T18:12:39.402Z,9.30
2023-09-16T18:15:07.105Z,8.87
2023-09-16T18:17:35.243Z,7.97
2023-09-16T18:20:03.546Z,12.60
2023-09-16T18:22:30.606Z,13.90
2023-09-16T18:24:58.075Z,11.90
2023-09-16T18:27:25.477Z,11.60
2023-09-16T18:29:52.552Z,10.83
2023-09-16T18:32:20.980Z,10.97
2023-09-16T18:34:48.128Z,10.50
2023-09-16T18:37:15.262Z,11.60
2023-09-16T18:39:42.954Z,11.43
2023-09-16T18:42:10.093Z,10.87
2023-09-16T18:44:38.166Z,9.93
2023-09-16T18:47:06.598Z,9.33
2023-09-16T18:49:35.601Z,9.27
2023-09-16T18:52:02.856Z,9.40
2023-09-16T18:54:32.604Z,9.10
2023-09-16T18:57:01.283Z,9.00
2023-09-16T18:59:28.404Z,8.47
2023-09-16T19:01:55.751Z,8.03
2023-09-16T19:04:23.574Z,9.87
2023-09-16T19:06:51.564Z,11.17
2023-09-16T19:09:19.922Z,9.27
2023-09-16T19:11:48.894Z,9.23
2023-09-16T19:14:15.805Z,9.20
2023-09-16T19:16:44.053Z,8.63
2023-09-16T19:19:11.560Z,9.13
2023-09-16T19:21:39.484Z,10.83
2023-09-16T19:24:07.152Z,11.50
2023-09-16T19:26:35.472Z,10.50
2023-09-16T19:29:02.609Z,10.37
2023-09-16T19:31:30.130Z,12.80
2023-09-16T19:33:58.179Z,9.60
2023-09-16T19:36:25.245Z,10.83
2023-09-16T19:38:55.439Z,9.20
2023-09-16T19:41:24.035Z,10.00
2023-09-16T19:43:51.253Z,9.77
2023-09-16T19:46:20.502Z,9.30
2023-09-16T19:48:47.489Z,10.60
2023-09-16T19:51:14.650Z,9.70
2023-09-16T19:53:42.827Z,9.60
2023-09-16T19:56:10.181Z,10.10
2023-09-16T19:58:37.243Z,10.90
2023-09-16T20:01:04.809Z,9.70
2023-09-16T20:03:32.100Z,10.60
2023-09-16T20:05:59.553Z,10.00
2023-09-16T20:08:26.669Z,10.70
2023-09-16T20:10:55.063Z,10.53
2023-09-16T20:13:23.735Z,11.53
2023-09-16T20:15:51.410Z,10.07
2023-09-16T20:18:19.629Z,11.23
2023-09-16T20:20:47.901Z,10.77
2023-09-16T20:23:15.249Z,10.70
2023-09-16T20:25:44.060Z,10.57
2023-09-16T20:28:13.651Z,9.80
2023-09-16T20:30:43.416Z,11.13
2023-09-16T20:33:10.678Z,10.57
2023-09-16T20:35:38.362Z,10.40
2023-09-16T20:38:05.928Z,11.77
2023-09-16T20:40:35.242Z,10.90
2023-09-16T20:43:03.669Z,10.83
2023-09-16T20:45:30.762Z,10.10
2023-09-16T20:47:57.864Z,11.67
2023-09-16T20:50:24.816Z,11.20
2023-09-16T20:52:53.228Z,12.30
2023-09-16T20:55:21.876Z,10.90
2023-09-16T20:57:49.056Z,11.73
2023-09-16T21:00:18.632Z,12.10
2023-09-16T21:02:45.901Z,12.23
2023-09-16T21:05:12.928Z,11.75
2023-09-16T21:07:40.417Z,11.53
2023-09-16T21:10:08.554Z,11.87
2023-09-16T21:12:36.061Z,11.87
2023-09-16T21:15:05.033Z,14.00
2023-09-16T21:17:32.034Z,14.40
2023-09-16T21:20:00.435Z,13.73
2023-09-16T21:22:27.508Z,13.40
2023-09-16T21:24:55.560Z,13.20
2023-09-16T21:27:22.450Z,14.00
2023-09-16T21:29:50.954Z,13.80
2023-09-16T21:32:18.634Z,14.03
2023-09-16T21:34:48.173Z,13.17
2023-09-16T21:37:16.094Z,13.27
2023-09-16T21:39:43.584Z,14.20
2023-09-16T21:42:10.754Z,13.30
2023-09-16T21:44:40.046Z,13.60
2023-09-16T21:47:08.045Z,14.23
2023-09-16T21:49:35.100Z,13.63
2023-09-16T21:52:02.529Z,13.27
2023-09-16T21:54:29.798Z,13.83
2023-09-16T21:56:59.540Z,12.90
2023-09-16T21:59:28.971Z,12.57
2023-09-16T22:01:58.335Z,12.10
2023-09-16T22:04:25.631Z,11.77
2023-09-16T22:06:52.788Z,14.73
2023-09-16T22:09:19.791Z,12.80
2023-09-16T22:11:47.631Z,14.13
2023-09-16T22:14:15.606Z,13.70
2023-09-16T22:16:43.456Z,13.03
2023-09-16T22:19:10.615Z,13.10
2023-09-16T22:21:37.708Z,14.70
2023-09-16T22:24:04.789Z,13.00
2023-09-16T22:26:31.955Z,12.60
2023-09-16T22:28:59.612Z,11.90
2023-09-16T22:31:27.518Z,12.37
2023-09-16T22:33:54.651Z,12.43
2023-09-16T22:36:21.639Z,12.47
2023-09-16T22:38:49.578Z,11.70
2023-09-16T22:41:17.295Z,11.10
2023-09-16T22:43:44.400Z,11.60
2023-09-16T22:46:12.230Z,11.83
2023-09-16T22:48:39.759Z,12.57
2023-09-16T22:51:08.098Z,11.53
2023-09-16T22:53:35.336Z,10.67
2023-09-16T22:56:02.788Z,11.60
2023-09-16T22:58:30.358Z,13.93
2023-09-16T23:01:05.757Z,13.00
2023-09-16T23:03:32.818Z,13.70
2023-09-16T23:06:02.827Z,11.97
2023-09-16T23:08:29.812Z,12.27
2023-09-16T23:10:56.815Z,12.60
2023-09-16T23:13:25.401Z,13.10
2023-09-16T23:15:54.353Z,12.37
2023-09-16T23:18:21.358Z,14.30
2023-09-16T23:21:01.133Z,13.60
2023-09-16T23:23:29.789Z,13.70
2023-09-16T23:25:56.673Z,11.13
2023-09-16T23:28:24.213Z,11.30
2023-09-16T23:30:51.186Z,11.70
2023-09-16T23:33:19.452Z,13.17
2023-09-16T23:35:46.980Z,13.43
2023-09-16T23:38:14.582Z,13.20
2023-09-16T23:40:44.757Z,16.43
2023-09-16T23:43:11.770Z,13.10
2023-09-16T23:45:38.840Z,12.63
2023-09-16T23:48:06.721Z,12.80
2023-09-16T23:50:35.237Z,10.87
2023-09-16T23:53:02.948Z,11.67
2023-09-16T23:55:31.567Z,11.33
2023-09-16T23:57:58.523Z,12.20
